To NAV CANADA Home Page Login to a new session Search on AWWS site Feedback and Comments Disclaimer Vers la page française équivalente Tips FAQ What's new on the site To the Forecasts and Observations / NOTAM section To "File a Flight Plan" website Publications and other links Update of the User's profile FIC Telephone Numbers My Weather Data Folder Route Weather Data Regional Weather Data Local Weather Data To the Forecasts and Observations / NOTAM section
Request Generated 04/24/2014 at 22:45:47 UTC . Weather information available at that time is displayed.

METAR/TAF

GRANDE PRAIRIE/AB    

METAR CYQU 242200Z 34006KT 25SM BKN030 05/M02 A2972 RMK SC5 SLP090=
METAR CYQU 242100Z 30005KT 240V300 25SM SCT025 06/M01 A2971 RMK SC4
SLP088=
METAR CYQU 242000Z 34009KT 25SM SCT017 05/M01 A2972 RMK SC4 SLP090=

TAF CYQU 241838Z 2419/2507 32008KT P6SM SCT015
FM242000 35007KT P6SM FEW020 SCT040 TEMPO 2420/2501 BKN020
BECMG 2422/2424 06010KT
RMK NXT FCST BY 250100Z=
Your time UTC time
Weather data provided by Environment Canada and NAV CANADA